sensor_id;sensor_type;location;lat;lon;timestamp;P1;durP1;ratioP1;P2;durP2;ratioP2
75456;SDS011;64036;48.266;14.192;2023-02-03T00:02:05;1.50;;;1.40;;
75456;SDS011;64036;48.266;14.192;2023-02-03T00:04:34;1.40;;;1.30;;
75456;SDS011;64036;48.266;14.192;2023-02-03T00:09:28;2.20;;;1.60;;
75456;SDS011;64036;48.266;14.192;2023-02-03T00:12:06;1.80;;;1.60;;
75456;SDS011;64036;48.266;14.192;2023-02-03T00:14:33;1.80;;;1.60;;
75456;SDS011;64036;48.266;14.192;2023-02-03T00:17:10;2.40;;;1.80;;
75456;SDS011;64036;48.266;14.192;2023-02-03T00:19:43;1.90;;;1.70;;
75456;SDS011;64036;48.266;14.192;2023-02-03T00:22:51;2.20;;;1.80;;
75456;SDS011;64036;48.266;14.192;2023-02-03T00:25:33;2.20;;;1.70;;
75456;SDS011;64036;48.266;14.192;2023-02-03T00:28:20;2.80;;;1.90;;
75456;SDS011;64036;48.266;14.192;2023-02-03T00:30:59;2.30;;;1.80;;
75456;SDS011;64036;48.266;14.192;2023-02-03T00:36:32;2.00;;;1.70;;
75456;SDS011;64036;48.266;14.192;2023-02-03T00:38:59;3.00;;;2.20;;
75456;SDS011;64036;48.266;14.192;2023-02-03T00:41:28;2.90;;;2.00;;
75456;SDS011;64036;48.266;14.192;2023-02-03T00:43:56;2.90;;;2.00;;
75456;SDS011;64036;48.266;14.192;2023-02-03T00:46:22;3.80;;;2.40;;
75456;SDS011;64036;48.266;14.192;2023-02-03T00:48:48;3.30;;;2.30;;
75456;SDS011;64036;48.266;14.192;2023-02-03T00:51:23;3.00;;;2.00;;
75456;SDS011;64036;48.266;14.192;2023-02-03T00:53:59;3.60;;;2.50;;
75456;SDS011;64036;48.266;14.192;2023-02-03T00:56:43;4.50;;;2.90;;
75456;SDS011;64036;48.266;14.192;2023-02-03T00:59:19;4.00;;;2.40;;
75456;SDS011;64036;48.266;14.192;2023-02-03T01:01:44;3.50;;;2.40;;
75456;SDS011;64036;48.266;14.192;2023-02-03T01:04:13;3.60;;;2.20;;
75456;SDS011;64036;48.266;14.192;2023-02-03T01:06:39;3.70;;;2.40;;
75456;SDS011;64036;48.266;14.192;2023-02-03T01:09:08;3.00;;;2.20;;
75456;SDS011;64036;48.266;14.192;2023-02-03T01:11:54;2.80;;;2.00;;
75456;SDS011;64036;48.266;14.192;2023-02-03T01:18:00;2.10;;;1.60;;
75456;SDS011;64036;48.266;14.192;2023-02-03T01:20:36;2.90;;;1.80;;
75456;SDS011;64036;48.266;14.192;2023-02-03T01:23:09;2.00;;;1.80;;
75456;SDS011;64036;48.266;14.192;2023-02-03T01:25:46;2.30;;;1.70;;
75456;SDS011;64036;48.266;14.192;2023-02-03T01:28:14;2.50;;;2.00;;
75456;SDS011;64036;48.266;14.192;2023-02-03T01:31:00;2.00;;;1.60;;
75456;SDS011;64036;48.266;14.192;2023-02-03T01:33:59;2.20;;;1.80;;
75456;SDS011;64036;48.266;14.192;2023-02-03T01:36:43;2.40;;;1.80;;
75456;SDS011;64036;48.266;14.192;2023-02-03T01:39:30;2.00;;;1.60;;
75456;SDS011;64036;48.266;14.192;2023-02-03T01:41:56;2.50;;;1.70;;
75456;SDS011;64036;48.266;14.192;2023-02-03T01:45:00;1.40;;;1.30;;
75456;SDS011;64036;48.266;14.192;2023-02-03T01:47:57;1.80;;;1.50;;
75456;SDS011;64036;48.266;14.192;2023-02-03T01:50:34;2.10;;;1.70;;
75456;SDS011;64036;48.266;14.192;2023-02-03T01:53:10;2.50;;;1.70;;
75456;SDS011;64036;48.266;14.192;2023-02-03T01:55:40;2.20;;;1.60;;
75456;SDS011;64036;48.266;14.192;2023-02-03T01:58:22;4.30;;;2.20;;
75456;SDS011;64036;48.266;14.192;2023-02-03T02:00:59;3.60;;;1.90;;
75456;SDS011;64036;48.266;14.192;2023-02-03T02:03:58;3.50;;;2.10;;
75456;SDS011;64036;48.266;14.192;2023-02-03T02:06:26;2.20;;;1.60;;
75456;SDS011;64036;48.266;14.192;2023-02-03T02:08:52;2.00;;;1.40;;
75456;SDS011;64036;48.266;14.192;2023-02-03T02:11:19;1.90;;;1.60;;
75456;SDS011;64036;48.266;14.192;2023-02-03T02:13:59;2.20;;;1.70;;
75456;SDS011;64036;48.266;14.192;2023-02-03T02:19:39;1.50;;;1.40;;
75456;SDS011;64036;48.266;14.192;2023-02-03T02:23:22;1.50;;;1.30;;
75456;SDS011;64036;48.266;14.192;2023-02-03T02:46:55;1.80;;;1.40;;
75456;SDS011;64036;48.266;14.192;2023-02-03T02:53:39;2.60;;;1.80;;
75456;SDS011;64036;48.266;14.192;2023-02-03T02:56:33;3.00;;;2.10;;
75456;SDS011;64036;48.266;14.192;2023-02-03T02:59:14;2.40;;;1.90;;
75456;SDS011;64036;48.266;14.192;2023-02-03T03:02:19;2.30;;;1.70;;
75456;SDS011;64036;48.266;14.192;2023-02-03T03:04:51;2.60;;;1.90;;
75456;SDS011;64036;48.266;14.192;2023-02-03T03:07:37;2.50;;;1.90;;
75456;SDS011;64036;48.266;14.192;2023-02-03T03:13:10;3.10;;;2.00;;
75456;SDS011;64036;48.266;14.192;2023-02-03T03:15:49;2.20;;;1.60;;
75456;SDS011;64036;48.266;14.192;2023-02-03T03:18:38;2.60;;;2.00;;
75456;SDS011;64036;48.266;14.192;2023-02-03T03:21:31;4.20;;;2.20;;
75456;SDS011;64036;48.266;14.192;2023-02-03T03:24:09;2.60;;;1.90;;
75456;SDS011;64036;48.266;14.192;2023-02-03T03:26:58;2.70;;;1.90;;
75456;SDS011;64036;48.266;14.192;2023-02-03T03:29:42;3.10;;;1.90;;
75456;SDS011;64036;48.266;14.192;2023-02-03T03:32:19;2.70;;;1.90;;
75456;SDS011;64036;48.266;14.192;2023-02-03T03:35:08;3.00;;;2.10;;
75456;SDS011;64036;48.266;14.192;2023-02-03T03:38:19;3.80;;;2.30;;
75456;SDS011;64036;48.266;14.192;2023-02-03T03:44:32;4.20;;;2.20;;
75456;SDS011;64036;48.266;14.192;2023-02-03T03:47:20;3.80;;;2.30;;
75456;SDS011;64036;48.266;14.192;2023-02-03T03:50:00;3.90;;;2.40;;
75456;SDS011;64036;48.266;14.192;2023-02-03T03:52:39;3.60;;;2.30;;
75456;SDS011;64036;48.266;14.192;2023-02-03T03:55:08;4.80;;;3.00;;
75456;SDS011;64036;48.266;14.192;2023-02-03T03:58:11;4.20;;;2.40;;
75456;SDS011;64036;48.266;14.192;2023-02-03T04:00:40;5.20;;;2.60;;
75456;SDS011;64036;48.266;14.192;2023-02-03T04:03:15;4.70;;;2.70;;
75456;SDS011;64036;48.266;14.192;2023-02-03T04:05:44;4.60;;;2.50;;
75456;SDS011;64036;48.266;14.192;2023-02-03T04:08:10;4.30;;;2.80;;
75456;SDS011;64036;48.266;14.192;2023-02-03T04:10:41;4.70;;;2.70;;
75456;SDS011;64036;48.266;14.192;2023-02-03T04:13:08;3.40;;;2.50;;
75456;SDS011;64036;48.266;14.192;2023-02-03T04:15:40;4.70;;;2.90;;
75456;SDS011;64036;48.266;14.192;2023-02-03T04:18:18;3.70;;;2.50;;
75456;SDS011;64036;48.266;14.192;2023-02-03T04:20:53;5.00;;;2.70;;
75456;SDS011;64036;48.266;14.192;2023-02-03T04:23:27;3.60;;;2.40;;
75456;SDS011;64036;48.266;14.192;2023-02-03T04:26:10;4.00;;;2.50;;
75456;SDS011;64036;48.266;14.192;2023-02-03T04:28:47;4.60;;;2.80;;
75456;SDS011;64036;48.266;14.192;2023-02-03T04:31:26;4.20;;;2.60;;
75456;SDS011;64036;48.266;14.192;2023-02-03T04:37:01;4.40;;;2.80;;
75456;SDS011;64036;48.266;14.192;2023-02-03T04:39:27;3.40;;;2.00;;
75456;SDS011;64036;48.266;14.192;2023-02-03T04:41:53;3.90;;;2.30;;
75456;SDS011;64036;48.266;14.192;2023-02-03T04:44:22;4.00;;;2.50;;
75456;SDS011;64036;48.266;14.192;2023-02-03T04:46:47;4.30;;;2.70;;
75456;SDS011;64036;48.266;14.192;2023-02-03T04:49:13;4.40;;;2.80;;
75456;SDS011;64036;48.266;14.192;2023-02-03T04:51:48;4.80;;;2.60;;
75456;SDS011;64036;48.266;14.192;2023-02-03T04:54:14;4.90;;;2.70;;
75456;SDS011;64036;48.266;14.192;2023-02-03T04:56:42;5.60;;;3.10;;
75456;SDS011;64036;48.266;14.192;2023-02-03T04:59:08;3.70;;;2.50;;
75456;SDS011;64036;48.266;14.192;2023-02-03T05:01:37;4.90;;;2.80;;
75456;SDS011;64036;48.266;14.192;2023-02-03T05:04:06;4.70;;;2.80;;
75456;SDS011;64036;48.266;14.192;2023-02-03T05:06:34;5.10;;;3.10;;
75456;SDS011;64036;48.266;14.192;2023-02-03T05:09:11;6.20;;;3.30;;
75456;SDS011;64036;48.266;14.192;2023-02-03T05:11:40;6.00;;;3.00;;
75456;SDS011;64036;48.266;14.192;2023-02-03T05:14:06;4.90;;;2.80;;
75456;SDS011;64036;48.266;14.192;2023-02-03T05:16:32;6.20;;;3.40;;
75456;SDS011;64036;48.266;14.192;2023-02-03T05:19:35;6.80;;;3.20;;
75456;SDS011;64036;48.266;14.192;2023-02-03T05:22:09;5.40;;;3.20;;
75456;SDS011;64036;48.266;14.192;2023-02-03T05:24:47;5.20;;;3.00;;
75456;SDS011;64036;48.266;14.192;2023-02-03T05:27:22;5.00;;;3.10;;
75456;SDS011;64036;48.266;14.192;2023-02-03T05:32:36;4.70;;;2.60;;
75456;SDS011;64036;48.266;14.192;2023-02-03T05:35:04;5.50;;;3.30;;
75456;SDS011;64036;48.266;14.192;2023-02-03T05:37:43;5.20;;;3.30;;
75456;SDS011;64036;48.266;14.192;2023-02-03T05:40:11;5.10;;;3.10;;
75456;SDS011;64036;48.266;14.192;2023-02-03T05:42:56;5.40;;;3.50;;
75456;SDS011;64036;48.266;14.192;2023-02-03T05:45:22;5.60;;;3.10;;
75456;SDS011;64036;48.266;14.192;2023-02-03T05:47:52;3.30;;;2.20;;
75456;SDS011;64036;48.266;14.192;2023-02-03T05:50:18;4.70;;;2.50;;
75456;SDS011;64036;48.266;14.192;2023-02-03T05:53:20;4.50;;;2.20;;
75456;SDS011;64036;48.266;14.192;2023-02-03T05:55:51;5.20;;;2.40;;
75456;SDS011;64036;48.266;14.192;2023-02-03T05:58:24;4.10;;;2.10;;
75456;SDS011;64036;48.266;14.192;2023-02-03T06:00:53;4.00;;;2.10;;
75456;SDS011;64036;48.266;14.192;2023-02-03T06:03:19;5.20;;;2.30;;
75456;SDS011;64036;48.266;14.192;2023-02-03T06:05:44;3.30;;;2.00;;
75456;SDS011;64036;48.266;14.192;2023-02-03T06:08:10;4.10;;;2.10;;
75456;SDS011;64036;48.266;14.192;2023-02-03T06:10:39;2.30;;;1.60;;
75456;SDS011;64036;48.266;14.192;2023-02-03T06:13:13;3.20;;;1.50;;
75456;SDS011;64036;48.266;14.192;2023-02-03T06:16:02;2.40;;;1.50;;
75456;SDS011;64036;48.266;14.192;2023-02-03T06:21:29;3.40;;;1.80;;
75456;SDS011;64036;48.266;14.192;2023-02-03T06:24:03;1.90;;;1.50;;
75456;SDS011;64036;48.266;14.192;2023-02-03T06:26:33;2.50;;;1.70;;
75456;SDS011;64036;48.266;14.192;2023-02-03T06:29:07;4.70;;;1.70;;
75456;SDS011;64036;48.266;14.192;2023-02-03T06:31:33;3.00;;;1.50;;
75456;SDS011;64036;48.266;14.192;2023-02-03T06:34:01;3.30;;;1.30;;
75456;SDS011;64036;48.266;14.192;2023-02-03T06:36:27;5.20;;;1.70;;
75456;SDS011;64036;48.266;14.192;2023-02-03T06:38:53;3.60;;;1.50;;
75456;SDS011;64036;48.266;14.192;2023-02-03T06:41:19;1.90;;;1.30;;
75456;SDS011;64036;48.266;14.192;2023-02-03T06:43:45;5.10;;;1.70;;
75456;SDS011;64036;48.266;14.192;2023-02-03T06:46:10;1.80;;;1.40;;
75456;SDS011;64036;48.266;14.192;2023-02-03T06:48:39;2.00;;;1.40;;
75456;SDS011;64036;48.266;14.192;2023-02-03T06:51:08;2.30;;;1.60;;
75456;SDS011;64036;48.266;14.192;2023-02-03T06:53:37;4.30;;;2.40;;
75456;SDS011;64036;48.266;14.192;2023-02-03T06:56:03;1.60;;;1.40;;
75456;SDS011;64036;48.266;14.192;2023-02-03T06:58:37;2.10;;;1.40;;
75456;SDS011;64036;48.266;14.192;2023-02-03T07:01:14;2.60;;;1.40;;
75456;SDS011;64036;48.266;14.192;2023-02-03T07:03:50;4.10;;;1.50;;
75456;SDS011;64036;48.266;14.192;2023-02-03T07:06:24;2.60;;;1.50;;
75456;SDS011;64036;48.266;14.192;2023-02-03T07:08:57;3.20;;;1.30;;
75456;SDS011;64036;48.266;14.192;2023-02-03T07:11:28;1.00;;;1.00;;
75456;SDS011;64036;48.266;14.192;2023-02-03T07:13:55;2.80;;;1.30;;
75456;SDS011;64036;48.266;14.192;2023-02-03T07:16:21;1.80;;;1.30;;
75456;SDS011;64036;48.266;14.192;2023-02-03T07:18:47;4.50;;;1.50;;
75456;SDS011;64036;48.266;14.192;2023-02-03T07:21:13;2.10;;;1.40;;
75456;SDS011;64036;48.266;14.192;2023-02-03T07:23:42;4.30;;;2.10;;
75456;SDS011;64036;48.266;14.192;2023-02-03T07:26:15;2.30;;;1.20;;
75456;SDS011;64036;48.266;14.192;2023-02-03T07:28:41;2.90;;;1.50;;
75456;SDS011;64036;48.266;14.192;2023-02-03T07:31:08;2.70;;;1.40;;
75456;SDS011;64036;48.266;14.192;2023-02-03T07:33:35;3.70;;;1.50;;
75456;SDS011;64036;48.266;14.192;2023-02-03T07:36:01;2.70;;;1.70;;
75456;SDS011;64036;48.266;14.192;2023-02-03T07:38:28;2.90;;;1.70;;
75456;SDS011;64036;48.266;14.192;2023-02-03T07:40:54;3.90;;;1.40;;
75456;SDS011;64036;48.266;14.192;2023-02-03T07:43:20;1.30;;;1.10;;
75456;SDS011;64036;48.266;14.192;2023-02-03T07:45:47;3.50;;;1.50;;
75456;SDS011;64036;48.266;14.192;2023-02-03T07:48:12;1.50;;;1.30;;
75456;SDS011;64036;48.266;14.192;2023-02-03T07:50:38;2.90;;;1.40;;
75456;SDS011;64036;48.266;14.192;2023-02-03T07:53:05;1.70;;;1.20;;
75456;SDS011;64036;48.266;14.192;2023-02-03T07:55:34;3.00;;;1.50;;
75456;SDS011;64036;48.266;14.192;2023-02-03T07:58:01;2.50;;;1.40;;
75456;SDS011;64036;48.266;14.192;2023-02-03T08:00:27;2.40;;;1.30;;
75456;SDS011;64036;48.266;14.192;2023-02-03T08:02:56;3.00;;;1.20;;
75456;SDS011;64036;48.266;14.192;2023-02-03T08:05:22;2.50;;;1.30;;
75456;SDS011;64036;48.266;14.192;2023-02-03T08:07:47;1.40;;;1.20;;
75456;SDS011;64036;48.266;14.192;2023-02-03T08:10:14;2.80;;;1.40;;
75456;SDS011;64036;48.266;14.192;2023-02-03T08:12:41;2.50;;;1.30;;
75456;SDS011;64036;48.266;14.192;2023-02-03T08:15:09;1.70;;;1.20;;
75456;SDS011;64036;48.266;14.192;2023-02-03T08:17:35;1.30;;;1.20;;
75456;SDS011;64036;48.266;14.192;2023-02-03T08:20:04;1.90;;;1.20;;
75456;SDS011;64036;48.266;14.192;2023-02-03T08:22:33;1.60;;;1.10;;
75456;SDS011;64036;48.266;14.192;2023-02-03T08:24:59;1.60;;;1.40;;
75456;SDS011;64036;48.266;14.192;2023-02-03T08:27:25;1.20;;;1.10;;
75456;SDS011;64036;48.266;14.192;2023-02-03T08:29:50;1.30;;;1.20;;
75456;SDS011;64036;48.266;14.192;2023-02-03T08:32:19;1.30;;;1.20;;
75456;SDS011;64036;48.266;14.192;2023-02-03T08:34:47;1.20;;;1.10;;
75456;SDS011;64036;48.266;14.192;2023-02-03T08:37:15;1.60;;;1.10;;
75456;SDS011;64036;48.266;14.192;2023-02-03T08:39:43;1.70;;;1.30;;
75456;SDS011;64036;48.266;14.192;2023-02-03T08:42:12;1.90;;;1.10;;
75456;SDS011;64036;48.266;14.192;2023-02-03T08:44:38;1.80;;;1.20;;
75456;SDS011;64036;48.266;14.192;2023-02-03T08:47:05;4.80;;;1.40;;
75456;SDS011;64036;48.266;14.192;2023-02-03T08:49:32;3.80;;;1.40;;
75456;SDS011;64036;48.266;14.192;2023-02-03T08:52:00;1.00;;;0.90;;
75456;SDS011;64036;48.266;14.192;2023-02-03T08:54:26;1.10;;;1.00;;
75456;SDS011;64036;48.266;14.192;2023-02-03T08:56:52;2.00;;;1.10;;
75456;SDS011;64036;48.266;14.192;2023-02-03T08:59:18;0.90;;;0.90;;
75456;SDS011;64036;48.266;14.192;2023-02-03T09:01:44;1.20;;;1.10;;
75456;SDS011;64036;48.266;14.192;2023-02-03T09:04:13;2.40;;;1.10;;
75456;SDS011;64036;48.266;14.192;2023-02-03T09:06:44;2.60;;;1.00;;
75456;SDS011;64036;48.266;14.192;2023-02-03T09:09:12;2.30;;;1.20;;
75456;SDS011;64036;48.266;14.192;2023-02-03T09:11:40;1.00;;;0.90;;
75456;SDS011;64036;48.266;14.192;2023-02-03T09:14:06;1.30;;;1.00;;
75456;SDS011;64036;48.266;14.192;2023-02-03T09:16:32;1.90;;;1.20;;
75456;SDS011;64036;48.266;14.192;2023-02-03T09:19:05;1.00;;;1.00;;
75456;SDS011;64036;48.266;14.192;2023-02-03T09:21:31;1.10;;;0.90;;
75456;SDS011;64036;48.266;14.192;2023-02-03T09:24:06;1.30;;;1.20;;
75456;SDS011;64036;48.266;14.192;2023-02-03T09:26:32;1.00;;;0.90;;
75456;SDS011;64036;48.266;14.192;2023-02-03T09:29:01;1.50;;;1.10;;
75456;SDS011;64036;48.266;14.192;2023-02-03T09:31:50;3.20;;;1.10;;
75456;SDS011;64036;48.266;14.192;2023-02-03T09:34:19;2.50;;;1.20;;
75456;SDS011;64036;48.266;14.192;2023-02-03T09:36:48;2.70;;;1.30;;
75456;SDS011;64036;48.266;14.192;2023-02-03T09:39:24;2.10;;;1.30;;
75456;SDS011;64036;48.266;14.192;2023-02-03T09:45:27;4.10;;;1.20;;
75456;SDS011;64036;48.266;14.192;2023-02-03T09:48:03;1.10;;;1.00;;
75456;SDS011;64036;48.266;14.192;2023-02-03T09:53:18;3.70;;;1.30;;
75456;SDS011;64036;48.266;14.192;2023-02-03T09:55:54;1.30;;;1.10;;
75456;SDS011;64036;48.266;14.192;2023-02-03T09:58:21;4.90;;;1.20;;
75456;SDS011;64036;48.266;14.192;2023-02-03T10:00:58;1.10;;;1.00;;
75456;SDS011;64036;48.266;14.192;2023-02-03T10:09:25;1.60;;;1.10;;
75456;SDS011;64036;48.266;14.192;2023-02-03T10:12:27;1.90;;;1.30;;
75456;SDS011;64036;48.266;14.192;2023-02-03T10:18:03;3.20;;;1.10;;
75456;SDS011;64036;48.266;14.192;2023-02-03T10:20:52;1.50;;;1.00;;
75456;SDS011;64036;48.266;14.192;2023-02-03T10:26:06;1.50;;;1.10;;
75456;SDS011;64036;48.266;14.192;2023-02-03T10:28:43;2.00;;;1.30;;
75456;SDS011;64036;48.266;14.192;2023-02-03T10:31:42;5.00;;;2.10;;
75456;SDS011;64036;48.266;14.192;2023-02-03T10:34:24;2.80;;;1.50;;
75456;SDS011;64036;48.266;14.192;2023-02-03T10:37:02;2.00;;;1.20;;
75456;SDS011;64036;48.266;14.192;2023-02-03T10:39:51;3.10;;;1.70;;
75456;SDS011;64036;48.266;14.192;2023-02-03T10:42:19;2.70;;;1.40;;
75456;SDS011;64036;48.266;14.192;2023-02-03T10:44:56;3.20;;;1.50;;
75456;SDS011;64036;48.266;14.192;2023-02-03T10:47:24;2.20;;;1.50;;
75456;SDS011;64036;48.266;14.192;2023-02-03T10:50:03;5.40;;;3.30;;
75456;SDS011;64036;48.266;14.192;2023-02-03T10:52:39;4.10;;;2.30;;
75456;SDS011;64036;48.266;14.192;2023-02-03T10:57:54;6.30;;;3.30;;
75456;SDS011;64036;48.266;14.192;2023-02-03T11:00:28;4.20;;;2.00;;
75456;SDS011;64036;48.266;14.192;2023-02-03T11:03:05;9.60;;;5.40;;
75456;SDS011;64036;48.266;14.192;2023-02-03T11:05:34;5.80;;;2.60;;
75456;SDS011;64036;48.266;14.192;2023-02-03T11:08:00;9.50;;;4.70;;
75456;SDS011;64036;48.266;14.192;2023-02-03T11:10:28;5.50;;;3.70;;
75456;SDS011;64036;48.266;14.192;2023-02-03T11:13:21;2.30;;;1.30;;
75456;SDS011;64036;48.266;14.192;2023-02-03T11:16:05;3.40;;;1.90;;
75456;SDS011;64036;48.266;14.192;2023-02-03T11:24:19;2.10;;;1.30;;
75456;SDS011;64036;48.266;14.192;2023-02-03T11:26:48;1.70;;;1.10;;
75456;SDS011;64036;48.266;14.192;2023-02-03T11:31:57;2.00;;;1.30;;
75456;SDS011;64036;48.266;14.192;2023-02-03T11:37:41;4.50;;;2.70;;
75456;SDS011;64036;48.266;14.192;2023-02-03T11:42:42;2.00;;;1.20;;
75456;SDS011;64036;48.266;14.192;2023-02-03T11:45:36;2.50;;;1.50;;
75456;SDS011;64036;48.266;14.192;2023-02-03T11:54:41;1.60;;;1.20;;
75456;SDS011;64036;48.266;14.192;2023-02-03T11:57:22;5.80;;;1.60;;
75456;SDS011;64036;48.266;14.192;2023-02-03T12:00:12;3.80;;;1.30;;
75456;SDS011;64036;48.266;14.192;2023-02-03T12:09:30;1.70;;;1.10;;
75456;SDS011;64036;48.266;14.192;2023-02-03T12:12:16;2.20;;;1.40;;
75456;SDS011;64036;48.266;14.192;2023-02-03T12:20:47;2.40;;;1.80;;
75456;SDS011;64036;48.266;14.192;2023-02-03T12:26:27;2.10;;;1.20;;
75456;SDS011;64036;48.266;14.192;2023-02-03T12:29:03;1.20;;;1.10;;
75456;SDS011;64036;48.266;14.192;2023-02-03T12:31:47;1.70;;;1.20;;
75456;SDS011;64036;48.266;14.192;2023-02-03T12:34:27;1.30;;;1.20;;
75456;SDS011;64036;48.266;14.192;2023-02-03T12:37:14;4.80;;;1.40;;
75456;SDS011;64036;48.266;14.192;2023-02-03T12:39:52;1.00;;;0.90;;
75456;SDS011;64036;48.266;14.192;2023-02-03T12:42:56;1.50;;;1.00;;
75456;SDS011;64036;48.266;14.192;2023-02-03T12:45:20;1.10;;;1.00;;
75456;SDS011;64036;48.266;14.192;2023-02-03T12:47:50;1.90;;;1.40;;
75456;SDS011;64036;48.266;14.192;2023-02-03T12:50:41;2.30;;;1.30;;
75456;SDS011;64036;48.266;14.192;2023-02-03T12:53:19;1.70;;;1.20;;
75456;SDS011;64036;48.266;14.192;2023-02-03T12:55:58;3.00;;;1.10;;
75456;SDS011;64036;48.266;14.192;2023-02-03T12:58:50;1.50;;;1.10;;
75456;SDS011;64036;48.266;14.192;2023-02-03T13:01:22;1.20;;;1.10;;
75456;SDS011;64036;48.266;14.192;2023-02-03T13:03:54;0.80;;;0.80;;
75456;SDS011;64036;48.266;14.192;2023-02-03T13:07:06;0.90;;;0.90;;
75456;SDS011;64036;48.266;14.192;2023-02-03T13:18:24;2.80;;;1.20;;
75456;SDS011;64036;48.266;14.192;2023-02-03T13:21:04;2.00;;;1.20;;
75456;SDS011;64036;48.266;14.192;2023-02-03T13:23:30;4.00;;;1.10;;
75456;SDS011;64036;48.266;14.192;2023-02-03T13:26:22;1.20;;;1.10;;
75456;SDS011;64036;48.266;14.192;2023-02-03T13:29:25;1.20;;;1.10;;
75456;SDS011;64036;48.266;14.192;2023-02-03T13:41:18;1.70;;;1.20;;
75456;SDS011;64036;48.266;14.192;2023-02-03T13:43:55;1.40;;;1.10;;
75456;SDS011;64036;48.266;14.192;2023-02-03T13:46:25;2.30;;;1.20;;
75456;SDS011;64036;48.266;14.192;2023-02-03T13:48:56;1.00;;;1.00;;
75456;SDS011;64036;48.266;14.192;2023-02-03T13:54:32;4.80;;;1.70;;
75456;SDS011;64036;48.266;14.192;2023-02-03T13:57:05;2.30;;;1.30;;
75456;SDS011;64036;48.266;14.192;2023-02-03T13:59:49;3.60;;;1.90;;
75456;SDS011;64036;48.266;14.192;2023-02-03T14:07:45;1.50;;;1.30;;
75456;SDS011;64036;48.266;14.192;2023-02-03T14:18:35;3.50;;;1.60;;
75456;SDS011;64036;48.266;14.192;2023-02-03T14:21:19;2.70;;;1.50;;
75456;SDS011;64036;48.266;14.192;2023-02-03T14:24:02;2.50;;;1.20;;
75456;SDS011;64036;48.266;14.192;2023-02-03T14:26:46;1.20;;;1.00;;
75456;SDS011;64036;48.266;14.192;2023-02-03T14:29:31;1.70;;;1.00;;
75456;SDS011;64036;48.266;14.192;2023-02-03T14:32:04;2.20;;;1.20;;
75456;SDS011;64036;48.266;14.192;2023-02-03T14:34:46;1.60;;;1.10;;
75456;SDS011;64036;48.266;14.192;2023-02-03T14:37:30;2.70;;;1.50;;
75456;SDS011;64036;48.266;14.192;2023-02-03T14:43:32;1.50;;;1.30;;
75456;SDS011;64036;48.266;14.192;2023-02-03T14:57:21;1.80;;;1.20;;
75456;SDS011;64036;48.266;14.192;2023-02-03T15:00:06;2.10;;;1.40;;
75456;SDS011;64036;48.266;14.192;2023-02-03T15:05:49;1.50;;;1.20;;
75456;SDS011;64036;48.266;14.192;2023-02-03T15:08:40;1.20;;;1.10;;
75456;SDS011;64036;48.266;14.192;2023-02-03T15:11:41;1.40;;;1.30;;
75456;SDS011;64036;48.266;14.192;2023-02-03T15:14:20;1.40;;;1.30;;
75456;SDS011;64036;48.266;14.192;2023-02-03T15:16:59;3.40;;;1.60;;
75456;SDS011;64036;48.266;14.192;2023-02-03T15:19:39;1.70;;;1.20;;
75456;SDS011;64036;48.266;14.192;2023-02-03T15:22:18;3.20;;;1.60;;
75456;SDS011;64036;48.266;14.192;2023-02-03T15:24:50;2.10;;;1.50;;
75456;SDS011;64036;48.266;14.192;2023-02-03T15:27:22;2.10;;;1.40;;
75456;SDS011;64036;48.266;14.192;2023-02-03T15:29:52;2.60;;;1.60;;
75456;SDS011;64036;48.266;14.192;2023-02-03T15:32:32;3.10;;;1.30;;
75456;SDS011;64036;48.266;14.192;2023-02-03T15:35:02;1.70;;;1.20;;
75456;SDS011;64036;48.266;14.192;2023-02-03T15:37:40;3.10;;;1.50;;
75456;SDS011;64036;48.266;14.192;2023-02-03T15:40:16;1.70;;;1.60;;
75456;SDS011;64036;48.266;14.192;2023-02-03T15:43:20;1.80;;;1.30;;
75456;SDS011;64036;48.266;14.192;2023-02-03T15:46:16;3.20;;;1.50;;
75456;SDS011;64036;48.266;14.192;2023-02-03T15:48:52;1.70;;;1.20;;
75456;SDS011;64036;48.266;14.192;2023-02-03T15:51:54;2.10;;;1.30;;
75456;SDS011;64036;48.266;14.192;2023-02-03T15:54:46;2.80;;;1.50;;
75456;SDS011;64036;48.266;14.192;2023-02-03T15:57:27;1.70;;;1.40;;
75456;SDS011;64036;48.266;14.192;2023-02-03T15:59:59;3.00;;;1.30;;
75456;SDS011;64036;48.266;14.192;2023-02-03T16:02:42;2.00;;;1.20;;
75456;SDS011;64036;48.266;14.192;2023-02-03T16:05:31;1.00;;;1.00;;
75456;SDS011;64036;48.266;14.192;2023-02-03T16:08:37;1.60;;;1.20;;
75456;SDS011;64036;48.266;14.192;2023-02-03T16:13:56;2.10;;;1.10;;
75456;SDS011;64036;48.266;14.192;2023-02-03T16:16:31;2.50;;;1.40;;
75456;SDS011;64036;48.266;14.192;2023-02-03T16:19:11;5.00;;;1.20;;
75456;SDS011;64036;48.266;14.192;2023-02-03T16:24:36;3.30;;;1.30;;
75456;SDS011;64036;48.266;14.192;2023-02-03T16:30:31;1.70;;;1.20;;
75456;SDS011;64036;48.266;14.192;2023-02-03T16:33:21;2.20;;;1.30;;
75456;SDS011;64036;48.266;14.192;2023-02-03T16:36:24;2.80;;;1.40;;
75456;SDS011;64036;48.266;14.192;2023-02-03T16:39:18;3.30;;;1.20;;
75456;SDS011;64036;48.266;14.192;2023-02-03T16:42:35;2.80;;;1.40;;
75456;SDS011;64036;48.266;14.192;2023-02-03T16:48:53;4.00;;;1.60;;
75456;SDS011;64036;48.266;14.192;2023-02-03T16:52:01;1.70;;;1.30;;
75456;SDS011;64036;48.266;14.192;2023-02-03T16:54:43;2.60;;;1.40;;
75456;SDS011;64036;48.266;14.192;2023-02-03T16:57:21;1.60;;;1.00;;
75456;SDS011;64036;48.266;14.192;2023-02-03T16:59:59;2.60;;;1.40;;
75456;SDS011;64036;48.266;14.192;2023-02-03T17:02:25;1.80;;;1.20;;
75456;SDS011;64036;48.266;14.192;2023-02-03T17:04:50;1.30;;;1.20;;
75456;SDS011;64036;48.266;14.192;2023-02-03T17:07:16;2.00;;;1.40;;
75456;SDS011;64036;48.266;14.192;2023-02-03T17:09:58;2.70;;;1.40;;
75456;SDS011;64036;48.266;14.192;2023-02-03T17:12:24;1.80;;;1.30;;
75456;SDS011;64036;48.266;14.192;2023-02-03T17:14:58;4.30;;;1.50;;
75456;SDS011;64036;48.266;14.192;2023-02-03T17:17:27;2.10;;;1.30;;
75456;SDS011;64036;48.266;14.192;2023-02-03T17:19:55;1.20;;;1.10;;
75456;SDS011;64036;48.266;14.192;2023-02-03T17:22:24;1.20;;;1.10;;
75456;SDS011;64036;48.266;14.192;2023-02-03T17:25:00;1.10;;;1.00;;
75456;SDS011;64036;48.266;14.192;2023-02-03T17:27:38;1.00;;;1.00;;
75456;SDS011;64036;48.266;14.192;2023-02-03T17:30:23;2.50;;;1.40;;
75456;SDS011;64036;48.266;14.192;2023-02-03T17:32:49;1.30;;;1.20;;
75456;SDS011;64036;48.266;14.192;2023-02-03T17:35:15;1.80;;;1.30;;
75456;SDS011;64036;48.266;14.192;2023-02-03T17:37:51;3.50;;;1.50;;
75456;SDS011;64036;48.266;14.192;2023-02-03T17:40:37;3.20;;;1.60;;
75456;SDS011;64036;48.266;14.192;2023-02-03T17:43:06;2.10;;;1.40;;
75456;SDS011;64036;48.266;14.192;2023-02-03T17:48:10;2.60;;;1.50;;
75456;SDS011;64036;48.266;14.192;2023-02-03T17:50:53;2.80;;;1.50;;
75456;SDS011;64036;48.266;14.192;2023-02-03T17:53:19;2.20;;;1.30;;
75456;SDS011;64036;48.266;14.192;2023-02-03T17:56:06;2.70;;;1.50;;
75456;SDS011;64036;48.266;14.192;2023-02-03T17:58:40;2.60;;;1.70;;
75456;SDS011;64036;48.266;14.192;2023-02-03T18:01:10;3.00;;;1.50;;
75456;SDS011;64036;48.266;14.192;2023-02-03T18:03:47;1.90;;;1.40;;
75456;SDS011;64036;48.266;14.192;2023-02-03T18:06:19;2.00;;;1.50;;
75456;SDS011;64036;48.266;14.192;2023-02-03T18:08:46;2.70;;;1.60;;
75456;SDS011;64036;48.266;14.192;2023-02-03T18:11:16;2.10;;;1.50;;
75456;SDS011;64036;48.266;14.192;2023-02-03T18:13:54;3.80;;;2.10;;
75456;SDS011;64036;48.266;14.192;2023-02-03T18:16:23;4.60;;;2.00;;
75456;SDS011;64036;48.266;14.192;2023-02-03T18:18:52;3.10;;;1.60;;
75456;SDS011;64036;48.266;14.192;2023-02-03T18:21:20;2.30;;;1.60;;